createdAt,value
2022-09-02T00:02:01.782Z,0.88
2022-09-02T00:04:28.777Z,0.82
2022-09-02T00:06:55.945Z,0.90
2022-09-02T00:09:25.208Z,0.77
2022-09-02T00:11:54.161Z,0.93
2022-09-02T00:14:24.905Z,1.05
2022-09-02T00:16:52.290Z,1.08
2022-09-02T00:19:24.945Z,1.00
2022-09-02T00:21:54.138Z,1.10
2022-09-02T00:24:21.760Z,0.90
2022-09-02T00:26:48.478Z,1.00
2022-09-02T00:29:15.483Z,1.00
2022-09-02T00:31:44.457Z,1.00
2022-09-02T00:34:11.624Z,0.98
2022-09-02T00:36:39.027Z,1.20
2022-09-02T00:39:08.249Z,1.13
2022-09-02T00:41:36.483Z,1.10
2022-09-02T00:44:07.418Z,1.20
2022-09-02T00:46:34.971Z,1.02
2022-09-02T00:49:10.127Z,1.00
2022-09-02T00:51:44.522Z,1.85
2022-09-02T00:54:13.753Z,0.95
2022-09-02T00:56:43.579Z,1.10
2022-09-02T00:59:15.522Z,1.08
2022-09-02T01:01:42.713Z,1.08
2022-09-02T01:04:12.615Z,1.00
2022-09-02T01:06:39.884Z,1.27
2022-09-02T01:09:14.700Z,1.00
2022-09-02T01:11:47.943Z,1.17
2022-09-02T01:14:16.781Z,1.10
2022-09-02T01:16:50.161Z,1.00
2022-09-02T01:19:44.219Z,1.10
2022-09-02T01:22:23.294Z,1.20
2022-09-02T01:24:50.450Z,1.20
2022-09-02T01:27:23.239Z,1.40
2022-09-02T01:29:55.984Z,1.20
2022-09-02T01:32:24.095Z,1.15
2022-09-02T01:34:51.512Z,1.10
2022-09-02T01:37:19.294Z,1.20
2022-09-02T01:39:46.810Z,1.10
2022-09-02T01:42:13.810Z,1.10
2022-09-02T01:44:45.006Z,1.20
2022-09-02T01:47:15.207Z,1.25
2022-09-02T01:49:42.530Z,1.20
2022-09-02T01:52:11.089Z,1.33
2022-09-02T01:54:38.330Z,1.20
2022-09-02T01:57:05.335Z,1.15
2022-09-02T01:59:32.273Z,1.15
2022-09-02T02:01:59.260Z,1.00
2022-09-02T02:04:27.684Z,1.10
2022-09-02T02:06:55.914Z,1.40
2022-09-02T02:09:23.134Z,1.40
2022-09-02T02:11:51.697Z,1.50
2022-09-02T02:14:18.439Z,1.40
2022-09-02T02:16:48.779Z,1.02
2022-09-02T02:19:15.626Z,1.10
2022-09-02T02:21:42.948Z,1.50
2022-09-02T02:24:09.699Z,1.25
2022-09-02T02:26:36.642Z,1.50
2022-09-02T02:29:04.804Z,1.60
2022-09-02T02:31:32.844Z,1.50
2022-09-02T02:33:59.874Z,1.45
2022-09-02T02:36:26.880Z,1.52
2022-09-02T02:38:53.587Z,1.38
2022-09-02T02:41:20.757Z,1.58
2022-09-02T02:43:47.862Z,1.45
2022-09-02T02:46:15.661Z,1.45
2022-09-02T02:48:42.679Z,1.45
2022-09-02T02:51:10.367Z,1.60
2022-09-02T02:53:38.319Z,1.60
2022-09-02T02:56:06.069Z,1.67
2022-09-02T02:58:33.661Z,1.60
2022-09-02T03:01:02.188Z,1.52
2022-09-02T03:03:29.966Z,1.80
2022-09-02T03:05:58.211Z,1.50
2022-09-02T03:08:27.141Z,1.77
2022-09-02T03:10:55.949Z,1.70
2022-09-02T03:13:26.066Z,2.05
2022-09-02T03:15:54.294Z,1.80
2022-09-02T03:18:22.226Z,1.63
2022-09-02T03:20:50.060Z,1.80
2022-09-02T03:23:18.853Z,1.80
2022-09-02T03:25:48.551Z,1.70
2022-09-02T03:28:28.041Z,1.75
2022-09-02T03:30:55.293Z,1.67
2022-09-02T03:33:23.398Z,1.70
2022-09-02T03:35:50.749Z,1.90
2022-09-02T03:38:17.885Z,1.80
2022-09-02T03:40:45.468Z,2.10
2022-09-02T03:43:13.389Z,2.03
2022-09-02T03:45:41.827Z,2.38
2022-09-02T03:48:13.384Z,2.08
2022-09-02T03:50:42.910Z,2.25
2022-09-02T03:53:18.259Z,2.25
2022-09-02T03:55:47.667Z,2.20
2022-09-02T03:58:17.679Z,1.83
2022-09-02T04:00:50.680Z,2.30
2022-09-02T04:03:17.952Z,2.50
2022-09-02T04:05:48.234Z,2.40
2022-09-02T04:08:15.442Z,2.17
2022-09-02T04:10:42.366Z,2.33
2022-09-02T04:13:09.961Z,2.40
2022-09-02T04:15:42.966Z,2.20
2022-09-02T04:18:10.858Z,2.92
2022-09-02T04:20:39.221Z,2.50
2022-09-02T04:23:06.217Z,2.40
2022-09-02T04:25:33.607Z,2.50
2022-09-02T04:28:00.692Z,2.65
2022-09-02T04:30:27.437Z,2.20
2022-09-02T04:32:54.634Z,2.83
2022-09-02T04:35:22.500Z,3.00
2022-09-02T04:37:49.282Z,3.33
2022-09-02T04:40:16.597Z,3.00
2022-09-02T04:42:43.620Z,3.03
2022-09-02T04:45:11.725Z,2.40
2022-09-02T04:47:39.887Z,2.58
2022-09-02T04:50:07.676Z,3.10
2022-09-02T04:52:36.868Z,2.42
2022-09-02T04:55:05.162Z,2.30
2022-09-02T04:57:32.234Z,2.40
2022-09-02T04:59:59.215Z,2.20
2022-09-02T05:02:26.058Z,2.38
2022-09-02T05:04:53.262Z,2.22
2022-09-02T05:07:27.839Z,2.45
2022-09-02T05:10:02.784Z,2.33
2022-09-02T05:12:35.222Z,2.38
2022-09-02T05:15:03.072Z,2.35
2022-09-02T05:17:33.026Z,2.40
2022-09-02T05:20:00.408Z,2.00
2022-09-02T05:22:29.421Z,2.20
2022-09-02T05:24:58.115Z,2.10
2022-09-02T05:27:26.801Z,2.22
2022-09-02T05:29:59.027Z,2.20
2022-09-02T05:32:27.723Z,2.30
2022-09-02T05:34:56.004Z,2.33
2022-09-02T05:37:24.528Z,2.10
2022-09-02T05:39:52.960Z,2.38
2022-09-02T05:42:20.611Z,2.30
2022-09-02T05:44:49.878Z,2.33
2022-09-02T05:47:19.763Z,2.38
2022-09-02T05:49:47.540Z,2.00
2022-09-02T05:52:16.651Z,2.20
2022-09-02T05:54:46.375Z,2.13
2022-09-02T05:57:17.404Z,1.80
2022-09-02T05:59:56.803Z,1.75
2022-09-02T06:02:29.521Z,2.00
2022-09-02T06:04:56.483Z,1.98
2022-09-02T06:07:26.309Z,1.77
2022-09-02T06:09:54.146Z,1.88
2022-09-02T06:12:24.145Z,1.90
2022-09-02T06:14:50.911Z,1.90
2022-09-02T06:17:20.065Z,2.08
2022-09-02T06:19:52.580Z,1.92
2022-09-02T06:22:21.860Z,1.92
2022-09-02T06:24:48.607Z,1.90
2022-09-02T06:27:20.611Z,1.80
2022-09-02T06:29:50.803Z,1.90
2022-09-02T06:32:20.503Z,2.25
2022-09-02T06:34:50.432Z,1.70
2022-09-02T06:37:17.167Z,1.80
2022-09-02T06:39:46.148Z,2.00
2022-09-02T06:42:18.550Z,1.52
2022-09-02T06:45:00.951Z,1.70
2022-09-02T06:47:28.331Z,1.90
2022-09-02T06:49:55.111Z,1.80
2022-09-02T06:52:21.932Z,1.80
2022-09-02T06:54:50.691Z,1.77
2022-09-02T06:57:18.532Z,1.77
2022-09-02T06:59:45.430Z,1.60
2022-09-02T07:02:13.812Z,1.95
2022-09-02T07:04:59.784Z,1.65
2022-09-02T07:07:26.613Z,1.60
2022-09-02T07:10:00.435Z,1.60
2022-09-02T07:12:27.857Z,1.67
2022-09-02T07:14:59.623Z,1.60
2022-09-02T07:17:31.746Z,1.60
2022-09-02T07:20:04.251Z,1.70
2022-09-02T07:22:38.284Z,1.77
2022-09-02T07:25:07.027Z,1.90
2022-09-02T07:27:35.182Z,1.75
2022-09-02T07:30:02.129Z,2.10
2022-09-02T07:32:31.175Z,2.00
2022-09-02T07:34:58.073Z,1.70
2022-09-02T07:37:25.170Z,2.00
2022-09-02T07:39:54.612Z,1.70
2022-09-02T07:42:22.288Z,1.83
2022-09-02T07:44:49.059Z,1.90
2022-09-02T07:47:17.282Z,1.80
2022-09-02T07:52:33.190Z,1.65
2022-09-02T07:55:00.640Z,1.73
2022-09-02T07:57:28.711Z,2.25
2022-09-02T07:59:55.540Z,1.60
2022-09-02T08:02:22.764Z,1.65
2022-09-02T08:04:50.022Z,1.80
2022-09-02T08:07:18.981Z,1.75
2022-09-02T08:09:45.681Z,1.50
2022-09-02T08:12:12.378Z,1.52
2022-09-02T08:14:39.065Z,1.75
2022-09-02T08:17:06.887Z,1.52
2022-09-02T08:19:33.563Z,1.63
2022-09-02T08:22:06.733Z,1.45
2022-09-02T08:24:33.446Z,1.27
2022-09-02T08:27:00.394Z,1.35
2022-09-02T08:29:27.084Z,1.25
2022-09-02T08:31:54.243Z,1.20
2022-09-02T08:34:21.101Z,1.20
2022-09-02T08:36:56.223Z,1.20
2022-09-02T08:42:19.968Z,1.40
2022-09-02T08:44:47.614Z,1.17
2022-09-02T08:47:21.745Z,1.27
2022-09-02T08:49:53.038Z,1.20
2022-09-02T08:52:33.274Z,1.27
2022-09-02T08:55:02.467Z,1.20
2022-09-02T08:57:31.605Z,1.25
2022-09-02T09:00:01.760Z,1.38
2022-09-02T09:02:47.689Z,1.23
2022-09-02T09:05:41.413Z,1.35
2022-09-02T09:08:25.358Z,1.00
2022-09-02T09:11:33.092Z,1.13
2022-09-02T09:14:40.621Z,1.27
2022-09-02T09:17:28.871Z,1.20
2022-09-02T09:20:05.910Z,1.00
2022-09-02T09:22:37.349Z,1.70
2022-09-02T09:25:11.654Z,1.30
2022-09-02T09:27:38.550Z,1.55
2022-09-02T09:30:12.815Z,1.35
2022-09-02T09:32:49.337Z,1.20
2022-09-02T09:35:17.579Z,1.35
2022-09-02T09:37:48.034Z,1.42
2022-09-02T09:40:21.187Z,1.00
2022-09-02T09:42:58.931Z,1.45
2022-09-02T09:45:36.302Z,1.20
2022-09-02T09:48:18.964Z,1.10
2022-09-02T09:50:47.674Z,1.20
2022-09-02T09:53:15.591Z,1.27
2022-09-02T09:56:05.618Z,1.00
2022-09-02T09:58:39.249Z,1.10
2022-09-02T10:01:19.810Z,1.10
2022-09-02T10:03:53.053Z,1.13
2022-09-02T10:06:24.166Z,1.30
2022-09-02T10:09:21.654Z,1.02
2022-09-02T10:14:36.338Z,1.15
2022-09-02T10:17:37.562Z,1.02
2022-09-02T10:20:14.779Z,1.10
2022-09-02T10:23:01.998Z,0.90
2022-09-02T10:25:45.367Z,1.20
2022-09-02T10:28:18.089Z,0.90
2022-09-02T10:31:12.642Z,1.17
2022-09-02T10:33:50.147Z,0.90
2022-09-02T10:36:27.711Z,0.90
2022-09-02T10:38:59.355Z,0.80
2022-09-02T10:44:20.475Z,0.90
2022-09-02T10:47:02.262Z,0.63
2022-09-02T10:49:38.389Z,0.90
2022-09-02T10:52:23.815Z,1.00
2022-09-02T10:55:06.813Z,1.00
2022-09-02T10:57:42.106Z,0.80
2022-09-02T11:00:17.083Z,0.90
2022-09-02T11:02:56.136Z,0.70
2022-09-02T11:05:34.723Z,0.68
2022-09-02T11:08:06.819Z,0.60
2022-09-02T11:10:47.634Z,0.80
2022-09-02T11:13:26.535Z,1.02
2022-09-02T11:16:15.268Z,0.70
2022-09-02T11:18:46.883Z,0.70
2022-09-02T11:21:45.975Z,0.88
2022-09-02T11:24:22.022Z,0.77
2022-09-02T11:27:06.257Z,0.90
2022-09-02T11:29:55.570Z,0.90
2022-09-02T11:32:50.524Z,0.70
2022-09-02T11:35:22.700Z,0.70
2022-09-02T11:38:41.033Z,0.70
2022-09-02T11:44:41.538Z,0.82
2022-09-02T11:47:37.716Z,0.85
2022-09-02T11:50:23.136Z,0.77
2022-09-02T11:53:13.315Z,0.57
2022-09-02T11:55:53.916Z,0.70
2022-09-02T11:58:38.842Z,0.70
2022-09-02T12:01:14.623Z,0.60
2022-09-02T12:04:16.222Z,0.63
2022-09-02T12:06:34.693Z,0.80
2022-09-02T12:09:04.979Z,0.60
2022-09-02T12:11:39.749Z,0.70
2022-09-02T12:14:13.562Z,0.60
2022-09-02T12:17:12.166Z,0.80
2022-09-02T12:19:39.878Z,0.57
2022-09-02T12:22:15.664Z,1.20
2022-09-02T12:25:02.551Z,0.68
2022-09-02T12:27:37.128Z,0.73
2022-09-02T12:30:11.575Z,0.70
2022-09-02T12:32:50.369Z,0.65
2022-09-02T12:35:40.497Z,0.80
2022-09-02T12:38:10.291Z,0.50
2022-09-02T12:40:53.339Z,0.90
2022-09-02T12:43:44.491Z,0.90
2022-09-02T12:46:45.126Z,0.90
2022-09-02T12:49:37.427Z,0.70
2022-09-02T12:52:08.463Z,1.00
2022-09-02T12:54:50.458Z,0.50
2022-09-02T12:57:19.208Z,0.77
2022-09-02T12:59:48.162Z,0.65
2022-09-02T13:02:36.215Z,0.70
2022-09-02T13:05:25.370Z,0.80
2022-09-02T13:08:26.084Z,0.60
2022-09-02T13:11:46.587Z,0.75
2022-09-02T13:14:48.485Z,0.70
2022-09-02T13:17:37.875Z,0.88
2022-09-02T13:20:14.442Z,0.65
2022-09-02T13:25:30.360Z,0.80
2022-09-02T13:28:16.046Z,0.82
2022-09-02T13:31:09.595Z,0.77
2022-09-02T13:33:40.603Z,0.82
2022-09-02T13:36:09.611Z,0.60
2022-09-02T13:38:38.844Z,0.60
2022-09-02T13:41:05.903Z,0.70
2022-09-02T13:43:32.627Z,0.60
2022-09-02T13:46:01.613Z,0.75
2022-09-02T13:48:31.968Z,0.80
2022-09-02T13:51:08.209Z,0.80
2022-09-02T13:54:05.016Z,0.70
2022-09-02T13:56:30.822Z,0.77
2022-09-02T13:58:57.724Z,0.70
2022-09-02T14:01:30.080Z,0.70
2022-09-02T14:04:00.012Z,0.68
2022-09-02T14:06:36.629Z,0.65
2022-09-02T14:11:42.600Z,0.75
2022-09-02T14:14:28.217Z,0.80
2022-09-02T14:17:22.817Z,0.82
2022-09-02T14:19:50.383Z,1.00
2022-09-02T14:22:28.555Z,0.85
2022-09-02T14:24:56.586Z,0.80
2022-09-02T14:27:24.527Z,0.73
2022-09-02T14:29:56.407Z,1.08
2022-09-02T14:32:25.834Z,0.70
2022-09-02T14:35:12.414Z,0.80
2022-09-02T14:38:12.445Z,0.88
2022-09-02T14:40:43.519Z,0.98
2022-09-02T14:43:16.358Z,1.00
2022-09-02T14:45:47.759Z,0.77
2022-09-02T14:48:26.009Z,0.88
2022-09-02T14:51:03.159Z,0.90
2022-09-02T14:53:30.794Z,0.77
2022-09-02T14:55:57.743Z,0.90
2022-09-02T14:58:27.031Z,1.00
2022-09-02T15:00:58.178Z,0.90
2022-09-02T15:03:25.762Z,0.80
2022-09-02T15:05:53.722Z,0.98
2022-09-02T15:08:20.621Z,0.82
2022-09-02T15:10:47.957Z,0.90
2022-09-02T15:13:33.702Z,0.93
2022-09-02T15:16:00.993Z,0.90
2022-09-02T15:18:27.785Z,0.95
2022-09-02T15:20:55.035Z,0.70
2022-09-02T15:23:21.940Z,0.80
2022-09-02T15:25:48.769Z,0.90
2022-09-02T15:28:15.661Z,0.77
2022-09-02T15:30:42.407Z,0.73
2022-09-02T15:33:17.357Z,0.70
2022-09-02T15:35:45.474Z,0.70
2022-09-02T15:38:12.861Z,0.90
2022-09-02T15:40:39.667Z,0.85
2022-09-02T15:43:06.321Z,0.75
2022-09-02T15:45:33.002Z,1.05
2022-09-02T15:47:59.676Z,0.90
2022-09-02T15:50:30.411Z,0.80
2022-09-02T15:52:57.590Z,0.60
2022-09-02T15:55:29.514Z,0.80
2022-09-02T15:57:56.763Z,1.00
2022-09-02T16:00:24.972Z,0.60
2022-09-02T16:02:54.731Z,0.93
2022-09-02T16:05:21.622Z,0.90
2022-09-02T16:07:48.566Z,0.88
2022-09-02T16:10:15.419Z,0.88
2022-09-02T16:12:42.136Z,0.70
2022-09-02T16:15:09.271Z,0.80
2022-09-02T16:17:36.204Z,0.63
2022-09-02T16:20:04.930Z,0.70
2022-09-02T16:22:34.728Z,0.70
2022-09-02T16:25:01.853Z,0.63
2022-09-02T16:27:47.379Z,0.70
2022-09-02T16:30:14.127Z,0.65
2022-09-02T16:32:41.036Z,1.13
2022-09-02T16:35:09.230Z,0.70
2022-09-02T16:37:36.108Z,0.70
2022-09-02T16:40:04.242Z,0.80
2022-09-02T16:42:34.816Z,0.90
2022-09-02T16:45:05.497Z,0.82
2022-09-02T16:47:32.363Z,0.73
2022-09-02T16:49:59.041Z,0.80
2022-09-02T16:52:25.866Z,0.85
2022-09-02T16:54:52.698Z,0.90
2022-09-02T16:57:19.523Z,0.80
2022-09-02T16:59:46.337Z,0.95
2022-09-02T17:02:13.098Z,0.80
2022-09-02T17:04:41.048Z,0.80
2022-09-02T17:07:08.087Z,0.93
2022-09-02T17:09:35.107Z,0.80
2022-09-02T17:12:01.845Z,0.60
2022-09-02T17:14:28.722Z,1.00
2022-09-02T17:16:55.474Z,0.88
2022-09-02T17:19:22.716Z,1.00
2022-09-02T17:21:53.423Z,1.00
2022-09-02T17:24:25.575Z,0.70
2022-09-02T17:26:55.674Z,0.90
2022-09-02T17:29:47.999Z,1.27
2022-09-02T17:32:12.109Z,1.02
2022-09-02T17:34:38.767Z,1.08
2022-09-02T17:37:05.759Z,1.02
2022-09-02T17:39:34.113Z,0.70
2022-09-02T17:42:02.089Z,1.20
2022-09-02T17:44:35.770Z,1.23
2022-09-02T17:47:07.533Z,1.15
2022-09-02T17:49:36.541Z,1.10
2022-09-02T17:52:05.375Z,1.08
2022-09-02T17:54:32.135Z,0.85
2022-09-02T17:57:09.431Z,1.13
2022-09-02T18:00:03.333Z,0.80
2022-09-02T18:03:09.509Z,0.80
2022-09-02T18:05:43.741Z,1.90
2022-09-02T18:09:02.178Z,1.15
2022-09-02T18:11:30.338Z,1.35
2022-09-02T18:14:16.103Z,1.23
2022-09-02T18:17:18.448Z,1.20
2022-09-02T18:20:10.590Z,1.00
2022-09-02T18:23:13.501Z,1.05
2022-09-02T18:26:17.929Z,1.17
2022-09-02T18:29:11.221Z,1.08
2022-09-02T18:32:00.766Z,1.00
2022-09-02T18:34:51.752Z,0.98
2022-09-02T18:37:45.438Z,1.10
2022-09-02T18:40:21.289Z,0.90
2022-09-02T18:43:19.724Z,1.10
2022-09-02T18:45:51.844Z,1.25
2022-09-02T18:48:41.742Z,1.25
2022-09-02T18:51:25.069Z,1.25
2022-09-02T18:53:57.119Z,1.20
2022-09-02T18:56:33.498Z,1.10
2022-09-02T18:59:10.771Z,1.20
2022-09-02T19:01:44.102Z,1.13
2022-09-02T19:04:10.949Z,1.00
2022-09-02T19:06:37.655Z,1.08
2022-09-02T19:09:12.911Z,1.05
2022-09-02T19:11:40.706Z,1.35
2022-09-02T19:14:16.702Z,0.90
2022-09-02T19:16:43.502Z,1.05
2022-09-02T19:19:10.495Z,1.10
2022-09-02T19:21:45.641Z,1.02
2022-09-02T19:24:16.004Z,0.90
2022-09-02T19:26:44.725Z,1.20
2022-09-02T19:29:14.851Z,1.25
2022-09-02T19:31:43.156Z,1.30
2022-09-02T19:34:10.658Z,1.20
2022-09-02T19:36:42.475Z,1.13
2022-09-02T19:39:09.303Z,1.20
2022-09-02T19:41:36.075Z,1.08
2022-09-02T19:44:03.119Z,1.10
2022-09-02T19:47:24.699Z,0.93
2022-09-02T19:49:16.769Z,1.13
2022-09-02T19:51:44.492Z,1.08
2022-09-02T19:54:14.652Z,1.10
2022-09-02T19:56:42.202Z,1.38
2022-09-02T19:59:09.517Z,1.30
2022-09-02T20:01:37.043Z,1.20
2022-09-02T20:04:05.935Z,1.20
2022-09-02T20:06:33.043Z,1.08
2022-09-02T20:09:00.102Z,1.50
2022-09-02T20:11:28.073Z,1.20
2022-09-02T20:13:56.326Z,1.00
2022-09-02T20:16:29.391Z,1.30
2022-09-02T20:18:57.059Z,1.38
2022-09-02T20:21:42.043Z,1.20
2022-09-02T20:24:10.556Z,1.20
2022-09-02T20:27:05.286Z,1.10
2022-09-02T20:29:34.729Z,1.25
2022-09-02T20:32:26.975Z,1.00
2022-09-02T20:35:11.543Z,1.30
2022-09-02T20:37:50.804Z,1.00
2022-09-02T20:40:36.438Z,0.90
2022-09-02T20:43:18.356Z,0.93
2022-09-02T20:46:10.143Z,1.30
2022-09-02T20:48:57.148Z,1.10
2022-09-02T20:51:39.742Z,1.10
2022-09-02T20:54:21.264Z,1.00
2022-09-02T20:57:25.803Z,1.10
2022-09-02T21:00:12.204Z,1.08
2022-09-02T21:02:58.936Z,1.40
2022-09-02T21:05:31.255Z,1.20
2022-09-02T21:08:28.363Z,1.20
2022-09-02T21:10:58.971Z,1.13
2022-09-02T21:13:46.973Z,0.95
2022-09-02T21:16:32.543Z,1.20
2022-09-02T21:19:33.213Z,1.10
2022-09-02T21:22:16.342Z,0.82
2022-09-02T21:24:53.249Z,0.95
2022-09-02T21:27:33.582Z,1.00
2022-09-02T21:30:09.560Z,1.10
2022-09-02T21:32:45.076Z,1.10
2022-09-02T21:35:22.336Z,1.20
2022-09-02T21:37:54.603Z,0.90
2022-09-02T21:40:27.202Z,1.30
2022-09-02T21:43:33.443Z,0.98
2022-09-02T21:46:16.078Z,0.85
2022-09-02T21:49:16.382Z,1.00
2022-09-02T21:51:53.391Z,0.82
2022-09-02T21:54:38.841Z,1.35
2022-09-02T21:57:31.176Z,1.10
2022-09-02T22:00:16.711Z,1.05
2022-09-02T22:02:58.200Z,1.13
2022-09-02T22:05:38.276Z,0.90
2022-09-02T22:08:20.252Z,0.90
2022-09-02T22:11:08.258Z,1.13
2022-09-02T22:13:37.684Z,0.93
2022-09-02T22:16:20.813Z,1.13
2022-09-02T22:19:02.349Z,1.25
2022-09-02T22:21:48.228Z,1.50
2022-09-02T22:24:20.032Z,1.20
2022-09-02T22:26:54.205Z,1.20
2022-09-02T22:29:32.230Z,1.08
2022-09-02T22:32:01.251Z,1.00
2022-09-02T22:34:31.439Z,1.20
2022-09-02T22:37:05.834Z,1.00
2022-09-02T22:39:43.746Z,1.10
2022-09-02T22:42:35.888Z,0.93
2022-09-02T22:45:28.871Z,1.20
2022-09-02T22:48:35.386Z,1.08
2022-09-02T22:51:26.875Z,0.88
2022-09-02T22:53:53.637Z,1.10
2022-09-02T22:56:40.367Z,1.17
2022-09-02T22:59:19.419Z,1.17
2022-09-02T23:02:05.697Z,1.10
2022-09-02T23:05:03.147Z,1.20
2022-09-02T23:07:31.141Z,0.90
2022-09-02T23:10:00.575Z,1.10
2022-09-02T23:12:34.170Z,1.15
2022-09-02T23:15:32.862Z,1.30
2022-09-02T23:18:05.862Z,1.00
2022-09-02T23:21:19.408Z,1.00
2022-09-02T23:24:02.026Z,1.30
2022-09-02T23:26:45.076Z,1.10
2022-09-02T23:29:26.207Z,1.00
2022-09-02T23:32:23.444Z,1.10
2022-09-02T23:35:10.172Z,1.05
2022-09-02T23:37:42.649Z,1.00
2022-09-02T23:40:27.752Z,1.00
2022-09-02T23:42:59.282Z,1.30
2022-09-02T23:45:32.006Z,1.30
2022-09-02T23:48:27.460Z,1.10
2022-09-02T23:51:23.142Z,1.48
2022-09-02T23:54:08.327Z,0.95
2022-09-02T23:57:07.389Z,1.20
2022-09-02T23:59:47.975Z,1.20
